sensor_id;sensor_type;location;lat;lon;timestamp;pressure;altitude;pressure_sealevel;temperature;humidity
67842;BME280;54642;59.126;37.876;2023-09-07T00:01:30;100392.81;;;10.42;72.17
67842;BME280;54642;59.126;37.876;2023-09-07T00:03:57;100388.47;;;10.42;72.11
67842;BME280;54642;59.126;37.876;2023-09-07T00:06:23;100398.84;;;10.42;72.08
67842;BME280;54642;59.126;37.876;2023-09-07T00:08:48;100403.19;;;10.43;72.26
67842;BME280;54642;59.126;37.876;2023-09-07T00:11:14;100396.28;;;10.39;72.22
67842;BME280;54642;59.126;37.876;2023-09-07T00:13:40;100358.22;;;10.18;72.22
67842;BME280;54642;59.126;37.876;2023-09-07T00:16:06;100398.84;;;10.42;72.23
67842;BME280;54642;59.126;37.876;2023-09-07T00:18:33;100410.94;;;10.43;72.27
67842;BME280;54642;59.126;37.876;2023-09-07T00:20:59;100408.34;;;10.40;72.14
67842;BME280;54642;59.126;37.876;2023-09-07T00:23:26;100420.47;;;10.43;72.27
67842;BME280;54642;59.126;37.876;2023-09-07T00:25:52;100414.41;;;10.39;72.30
67842;BME280;54642;59.126;37.876;2023-09-07T00:28:18;100421.31;;;10.42;72.23
67842;BME280;54642;59.126;37.876;2023-09-07T00:30:44;100404.00;;;10.32;72.34
67842;BME280;54642;59.126;37.876;2023-09-07T00:33:10;100386.69;;;10.18;72.23
67842;BME280;54642;59.126;37.876;2023-09-07T00:35:36;100410.88;;;10.29;72.29
67842;BME280;54642;59.126;37.876;2023-09-07T00:38:03;100414.38;;;10.35;72.20
67842;BME280;54642;59.126;37.876;2023-09-07T00:40:30;100421.28;;;10.33;72.36
67842;BME280;54642;59.126;37.876;2023-09-07T00:42:56;100428.19;;;10.34;72.51
67842;BME280;54642;59.126;37.876;2023-09-07T00:45:22;100416.06;;;10.26;72.49
67842;BME280;54642;59.126;37.876;2023-09-07T00:47:48;100410.88;;;10.23;72.39
67842;BME280;54642;59.126;37.876;2023-09-07T00:50:14;100435.09;;;10.32;72.44
67842;BME280;54642;59.126;37.876;2023-09-07T00:52:43;100436.78;;;10.29;72.35
67842;BME280;54642;59.126;37.876;2023-09-07T00:55:09;100419.50;;;10.16;72.46
67842;BME280;54642;59.126;37.876;2023-09-07T00:57:37;100419.50;;;10.13;72.50
67842;BME280;54642;59.126;37.876;2023-09-07T01:00:06;100442.81;;;10.24;72.51
67842;BME280;54642;59.126;37.876;2023-09-07T01:02:33;100418.66;;;10.14;72.41
67842;BME280;54642;59.126;37.876;2023-09-07T01:05:01;100435.94;;;10.21;72.58
67842;BME280;54642;59.126;37.876;2023-09-07T01:07:43;100409.97;;;10.12;72.64
67842;BME280;54642;59.126;37.876;2023-09-07T01:10:12;100435.06;;;10.25;72.52
67842;BME280;54642;59.126;37.876;2023-09-07T01:12:42;100422.94;;;10.17;72.63
67842;BME280;54642;59.126;37.876;2023-09-07T01:15:08;100439.38;;;10.23;72.67
67842;BME280;54642;59.126;37.876;2023-09-07T01:17:36;100422.06;;;10.13;72.84
67842;BME280;54642;59.126;37.876;2023-09-07T01:20:05;100448.84;;;10.24;72.77
67842;BME280;54642;59.126;37.876;2023-09-07T01:22:36;100448.88;;;10.21;72.82
67842;BME280;54642;59.126;37.876;2023-09-07T01:25:02;100449.72;;;10.20;72.96
67842;BME280;54642;59.126;37.876;2023-09-07T01:27:28;100457.50;;;10.22;72.97
67842;BME280;54642;59.126;37.876;2023-09-07T01:29:55;100430.69;;;10.12;72.91
67842;BME280;54642;59.126;37.876;2023-09-07T01:32:21;100438.47;;;10.15;72.92
67842;BME280;54642;59.126;37.876;2023-09-07T01:34:47;100418.59;;;10.00;72.91
67842;BME280;54642;59.126;37.876;2023-09-07T01:37:13;100448.00;;;10.16;73.11
67842;BME280;54642;59.126;37.876;2023-09-07T01:39:38;100436.75;;;10.11;73.19
67842;BME280;54642;59.126;37.876;2023-09-07T01:42:04;100440.19;;;10.11;73.12
67842;BME280;54642;59.126;37.876;2023-09-07T01:44:30;100452.31;;;10.20;73.24
67842;BME280;54642;59.126;37.876;2023-09-07T01:46:56;100455.75;;;10.19;73.27
67842;BME280;54642;59.126;37.876;2023-09-07T01:49:22;100447.97;;;10.15;73.21
67842;BME280;54642;59.126;37.876;2023-09-07T01:51:57;100460.94;;;10.19;73.17
67842;BME280;54642;59.126;37.876;2023-09-07T01:54:23;100447.97;;;10.13;73.14
67842;BME280;54642;59.126;37.876;2023-09-07T01:56:50;100456.59;;;10.15;73.21
67842;BME280;54642;59.126;37.876;2023-09-07T01:59:16;100444.50;;;10.09;73.39
67842;BME280;54642;59.126;37.876;2023-09-07T02:01:42;100453.16;;;10.13;73.14
67842;BME280;54642;59.126;37.876;2023-09-07T02:04:08;100457.47;;;10.17;73.23
67842;BME280;54642;59.126;37.876;2023-09-07T02:06:34;100441.91;;;10.05;73.24
67842;BME280;54642;59.126;37.876;2023-09-07T02:09:00;100453.16;;;10.07;73.21
67842;BME280;54642;59.126;37.876;2023-09-07T02:11:26;100460.91;;;10.11;73.23
67842;BME280;54642;59.126;37.876;2023-09-07T02:13:52;100448.78;;;10.03;73.27
67842;BME280;54642;59.126;37.876;2023-09-07T02:16:17;100465.25;;;10.13;73.18
67842;BME280;54642;59.126;37.876;2023-09-07T02:18:44;100468.69;;;10.15;73.25
67842;BME280;54642;59.126;37.876;2023-09-07T02:21:11;100453.97;;;10.04;72.86
67842;BME280;54642;59.126;37.876;2023-09-07T02:23:37;100469.56;;;10.10;73.31
67842;BME280;54642;59.126;37.876;2023-09-07T02:26:04;100467.81;;;10.11;73.29
67842;BME280;54642;59.126;37.876;2023-09-07T02:28:30;100450.53;;;10.04;73.16
67842;BME280;54642;59.126;37.876;2023-09-07T02:31:02;100475.63;;;10.14;73.09
67842;BME280;54642;59.126;37.876;2023-09-07T02:33:29;100474.72;;;10.14;73.26
67842;BME280;54642;59.126;37.876;2023-09-07T02:35:55;100473.03;;;10.14;73.14
67842;BME280;54642;59.126;37.876;2023-09-07T02:38:21;100471.28;;;10.13;73.19
67842;BME280;54642;59.126;37.876;2023-09-07T02:40:47;100484.25;;;10.18;73.16
67842;BME280;54642;59.126;37.876;2023-09-07T02:43:13;100489.41;;;10.19;73.22
67842;BME280;54642;59.126;37.876;2023-09-07T02:45:39;100484.25;;;10.19;73.46
67842;BME280;54642;59.126;37.876;2023-09-07T02:48:05;100499.78;;;10.22;73.08
67842;BME280;54642;59.126;37.876;2023-09-07T02:50:34;100481.63;;;10.13;73.04
67842;BME280;54642;59.126;37.876;2023-09-07T02:53:00;100481.66;;;10.18;73.09
67842;BME280;54642;59.126;37.876;2023-09-07T02:55:28;100496.34;;;10.22;72.96
67842;BME280;54642;59.126;37.876;2023-09-07T02:57:56;100478.19;;;10.11;73.23
67842;BME280;54642;59.126;37.876;2023-09-07T03:00:23;100472.13;;;10.09;73.05
67842;BME280;54642;59.126;37.876;2023-09-07T03:02:49;100497.19;;;10.21;73.14
67842;BME280;54642;59.126;37.876;2023-09-07T03:05:16;100502.38;;;10.22;72.88
67842;BME280;54642;59.126;37.876;2023-09-07T03:07:45;100500.66;;;10.23;73.18
67842;BME280;54642;59.126;37.876;2023-09-07T03:10:13;100507.56;;;10.22;73.11
67842;BME280;54642;59.126;37.876;2023-09-07T03:12:43;100507.59;;;10.25;73.11
67842;BME280;54642;59.126;37.876;2023-09-07T03:15:09;100517.94;;;10.24;73.10
67842;BME280;54642;59.126;37.876;2023-09-07T03:17:35;100501.50;;;10.16;73.16
67842;BME280;54642;59.126;37.876;2023-09-07T03:20:01;100515.38;;;10.27;73.07
67842;BME280;54642;59.126;37.876;2023-09-07T03:22:44;100505.84;;;10.21;73.18
67842;BME280;54642;59.126;37.876;2023-09-07T03:25:10;100518.81;;;10.27;73.05
67842;BME280;54642;59.126;37.876;2023-09-07T03:27:37;100506.72;;;10.22;73.27
67842;BME280;54642;59.126;37.876;2023-09-07T03:30:04;100515.34;;;10.24;73.09
67842;BME280;54642;59.126;37.876;2023-09-07T03:32:32;100530.09;;;10.33;73.17
67842;BME280;54642;59.126;37.876;2023-09-07T03:34:59;100512.78;;;10.25;73.19
67842;BME280;54642;59.126;37.876;2023-09-07T03:37:28;100514.50;;;10.23;73.14
67842;BME280;54642;59.126;37.876;2023-09-07T03:39:57;100532.69;;;10.31;73.07
67842;BME280;54642;59.126;37.876;2023-09-07T03:42:23;100539.59;;;10.38;73.16
67842;BME280;54642;59.126;37.876;2023-09-07T03:44:49;100545.66;;;10.39;72.99
67842;BME280;54642;59.126;37.876;2023-09-07T03:47:15;100549.97;;;10.40;73.04
67842;BME280;54642;59.126;37.876;2023-09-07T03:49:42;100546.53;;;10.39;73.20
67842;BME280;54642;59.126;37.876;2023-09-07T03:52:08;100526.59;;;10.27;73.14
67842;BME280;54642;59.126;37.876;2023-09-07T03:54:35;100539.56;;;10.29;73.26
67842;BME280;54642;59.126;37.876;2023-09-07T03:57:01;100546.50;;;10.33;73.24
67842;BME280;54642;59.126;37.876;2023-09-07T03:59:29;100556.88;;;10.41;73.42
67842;BME280;54642;59.126;37.876;2023-09-07T04:01:55;100557.75;;;10.44;73.56
67842;BME280;54642;59.126;37.876;2023-09-07T04:04:21;100561.22;;;10.48;73.27
67842;BME280;54642;59.126;37.876;2023-09-07T04:06:48;100551.72;;;10.44;73.27
67842;BME280;54642;59.126;37.876;2023-09-07T04:09:15;100568.16;;;10.49;73.42
67842;BME280;54642;59.126;37.876;2023-09-07T04:11:41;100549.94;;;10.35;72.97
67842;BME280;54642;59.126;37.876;2023-09-07T04:14:08;100549.09;;;10.41;73.20
67842;BME280;54642;59.126;37.876;2023-09-07T04:16:34;100538.72;;;10.35;73.17
67842;BME280;54642;59.126;37.876;2023-09-07T04:19:00;100569.00;;;10.45;73.09
67842;BME280;54642;59.126;37.876;2023-09-07T04:21:27;100577.63;;;10.44;73.31
67842;BME280;54642;59.126;37.876;2023-09-07T04:23:53;100562.06;;;10.36;73.19
67842;BME280;54642;59.126;37.876;2023-09-07T04:26:18;100562.06;;;10.35;73.27
67842;BME280;54642;59.126;37.876;2023-09-07T04:28:44;100584.56;;;10.46;73.30
67842;BME280;54642;59.126;37.876;2023-09-07T04:31:10;100577.63;;;10.45;72.88
67842;BME280;54642;59.126;37.876;2023-09-07T04:33:37;100590.56;;;10.42;73.27
67842;BME280;54642;59.126;37.876;2023-09-07T04:36:10;100591.44;;;10.44;73.17
67842;BME280;54642;59.126;37.876;2023-09-07T04:38:38;100570.63;;;10.29;73.27
67842;BME280;54642;59.126;37.876;2023-09-07T04:43:33;100603.59;;;10.58;73.18
67842;BME280;54642;59.126;37.876;2023-09-07T04:46:00;100582.84;;;10.53;73.16
67842;BME280;54642;59.126;37.876;2023-09-07T04:48:27;100587.16;;;10.54;73.20
67842;BME280;54642;59.126;37.876;2023-09-07T04:51:03;100597.56;;;10.65;73.26
67842;BME280;54642;59.126;37.876;2023-09-07T04:53:30;100601.91;;;10.72;73.27
67842;BME280;54642;59.126;37.876;2023-09-07T04:55:59;100608.88;;;10.84;72.96
67842;BME280;54642;59.126;37.876;2023-09-07T04:58:25;100608.03;;;10.91;72.95
67842;BME280;54642;59.126;37.876;2023-09-07T05:00:51;100584.69;;;10.91;72.80
67842;BME280;54642;59.126;37.876;2023-09-07T05:03:17;100585.53;;;10.96;72.75
67842;BME280;54642;59.126;37.876;2023-09-07T05:05:44;100615.00;;;11.18;72.96
67842;BME280;54642;59.126;37.876;2023-09-07T05:08:10;100603.78;;;11.27;72.56
67842;BME280;54642;59.126;37.876;2023-09-07T05:10:37;100617.63;;;11.41;72.57
67842;BME280;54642;59.126;37.876;2023-09-07T05:13:03;100607.25;;;11.54;72.12
67842;BME280;54642;59.126;37.876;2023-09-07T05:15:29;100615.88;;;11.60;72.11
67842;BME280;54642;59.126;37.876;2023-09-07T05:17:55;100625.41;;;11.66;72.00
67842;BME280;54642;59.126;37.876;2023-09-07T05:20:21;100605.50;;;11.63;71.68
67842;BME280;54642;59.126;37.876;2023-09-07T05:22:48;100628.88;;;11.80;71.67
67842;BME280;54642;59.126;37.876;2023-09-07T05:25:14;100627.97;;;11.80;71.48
67842;BME280;54642;59.126;37.876;2023-09-07T05:27:40;100604.59;;;11.78;71.67
67842;BME280;54642;59.126;37.876;2023-09-07T05:30:06;100621.91;;;11.89;71.36
67842;BME280;54642;59.126;37.876;2023-09-07T05:32:32;100619.38;;;11.95;71.24
67842;BME280;54642;59.126;37.876;2023-09-07T05:34:58;100601.19;;;11.92;71.12
67842;BME280;54642;59.126;37.876;2023-09-07T05:37:24;100585.56;;;11.89;70.96
67842;BME280;54642;59.126;37.876;2023-09-07T05:39:50;100626.25;;;11.94;70.96
67842;BME280;54642;59.126;37.876;2023-09-07T05:42:16;100632.34;;;11.93;71.16
67842;BME280;54642;59.126;37.876;2023-09-07T05:44:42;100621.91;;;11.89;71.04
67842;BME280;54642;59.126;37.876;2023-09-07T05:47:08;100640.09;;;12.12;70.79
67842;BME280;54642;59.126;37.876;2023-09-07T05:49:34;100640.94;;;12.25;70.51
67842;BME280;54642;59.126;37.876;2023-09-07T05:52:00;100637.47;;;12.27;70.51
67842;BME280;54642;59.126;37.876;2023-09-07T05:54:26;100652.16;;;12.39;70.21
67842;BME280;54642;59.126;37.876;2023-09-07T05:56:51;100652.16;;;12.37;70.20
67842;BME280;54642;59.126;37.876;2023-09-07T05:59:17;100642.59;;;12.50;70.06
67842;BME280;54642;59.126;37.876;2023-09-07T06:01:44;100652.97;;;12.53;69.79
67842;BME280;54642;59.126;37.876;2023-09-07T06:04:10;100647.84;;;12.36;70.14
67842;BME280;54642;59.126;37.876;2023-09-07T06:06:37;100647.88;;;12.26;70.36
67842;BME280;54642;59.126;37.876;2023-09-07T06:09:02;100663.44;;;12.33;70.25
67842;BME280;54642;59.126;37.876;2023-09-07T06:11:29;100657.38;;;12.33;70.34
67842;BME280;54642;59.126;37.876;2023-09-07T06:13:58;100651.31;;;12.28;70.15
67842;BME280;54642;59.126;37.876;2023-09-07T06:16:24;100660.84;;;12.33;70.36
67842;BME280;54642;59.126;37.876;2023-09-07T06:18:50;100654.81;;;12.20;70.55
67842;BME280;54642;59.126;37.876;2023-09-07T06:21:16;100661.69;;;12.40;70.55
67842;BME280;54642;59.126;37.876;2023-09-07T06:23:43;100668.59;;;12.41;70.29
67842;BME280;54642;59.126;37.876;2023-09-07T06:26:09;100665.19;;;12.36;70.27
67842;BME280;54642;59.126;37.876;2023-09-07T06:28:35;100663.41;;;12.49;70.13
67842;BME280;54642;59.126;37.876;2023-09-07T06:31:01;100669.38;;;12.75;69.66
67842;BME280;54642;59.126;37.876;2023-09-07T06:33:27;100672.69;;;13.05;69.26
67842;BME280;54642;59.126;37.876;2023-09-07T06:35:53;100670.91;;;13.15;69.09
67842;BME280;54642;59.126;37.876;2023-09-07T06:38:18;100645.81;;;13.00;68.44
67842;BME280;54642;59.126;37.876;2023-09-07T06:40:48;100672.69;;;13.05;68.82
67842;BME280;54642;59.126;37.876;2023-09-07T06:43:15;100652.84;;;12.89;68.54
67842;BME280;54642;59.126;37.876;2023-09-07T06:45:41;100658.94;;;12.85;68.65
67842;BME280;54642;59.126;37.876;2023-09-07T06:48:07;100658.03;;;12.86;68.85
67842;BME280;54642;59.126;37.876;2023-09-07T06:50:33;100668.38;;;13.00;68.44
67842;BME280;54642;59.126;37.876;2023-09-07T06:52:59;100656.09;;;13.25;67.98
67842;BME280;54642;59.126;37.876;2023-09-07T06:55:25;100656.03;;;13.42;67.50
67842;BME280;54642;59.126;37.876;2023-09-07T06:57:53;100674.09;;;13.63;67.19
67842;BME280;54642;59.126;37.876;2023-09-07T07:00:19;100673.09;;;13.77;66.97
67842;BME280;54642;59.126;37.876;2023-09-07T07:02:45;100659.22;;;13.78;66.64
67842;BME280;54642;59.126;37.876;2023-09-07T07:05:11;100649.47;;;14.00;66.86
67842;BME280;54642;59.126;37.876;2023-09-07T07:07:38;100663.25;;;14.11;66.52
67842;BME280;54642;59.126;37.876;2023-09-07T07:10:05;100667.44;;;14.29;66.08
67842;BME280;54642;59.126;37.876;2023-09-07T07:12:31;100665.81;;;14.17;66.12
67842;BME280;54642;59.126;37.876;2023-09-07T07:15:01;100674.56;;;14.08;65.87
67842;BME280;54642;59.126;37.876;2023-09-07T07:17:28;100685.13;;;13.93;66.01
67842;BME280;54642;59.126;37.876;2023-09-07T07:19:54;100686.94;;;13.85;66.27
67842;BME280;54642;59.126;37.876;2023-09-07T07:22:20;100673.06;;;13.84;65.87
67842;BME280;54642;59.126;37.876;2023-09-07T07:24:46;100671.13;;;14.05;65.42
67842;BME280;54642;59.126;37.876;2023-09-07T07:27:12;100662.38;;;14.14;65.09
67842;BME280;54642;59.126;37.876;2023-09-07T07:29:39;100679.63;;;14.25;64.69
67842;BME280;54642;59.126;37.876;2023-09-07T07:32:05;100694.56;;;14.09;64.77
67842;BME280;54642;59.126;37.876;2023-09-07T07:34:32;100688.56;;;13.98;64.47
67842;BME280;54642;59.126;37.876;2023-09-07T07:36:58;100687.63;;;14.07;64.18
67842;BME280;54642;59.126;37.876;2023-09-07T07:39:24;100690.91;;;14.26;63.82
67842;BME280;54642;59.126;37.876;2023-09-07T07:41:50;100678.53;;;14.45;63.53
67842;BME280;54642;59.126;37.876;2023-09-07T07:44:17;100661.09;;;14.50;62.95
67842;BME280;54642;59.126;37.876;2023-09-07T07:46:43;100669.56;;;14.74;62.46
67842;BME280;54642;59.126;37.876;2023-09-07T07:49:09;100682.44;;;14.86;62.55
67842;BME280;54642;59.126;37.876;2023-09-07T07:51:36;100645.00;;;14.90;62.27
67842;BME280;54642;59.126;37.876;2023-09-07T07:54:02;100670.66;;;15.22;61.79
67842;BME280;54642;59.126;37.876;2023-09-07T07:56:29;100672.25;;;15.33;61.62
67842;BME280;54642;59.126;37.876;2023-09-07T07:58:55;100681.13;;;15.21;61.06
67842;BME280;54642;59.126;37.876;2023-09-07T08:01:21;100658.25;;;14.73;61.43
67842;BME280;54642;59.126;37.876;2023-09-07T08:03:48;100671.38;;;14.65;61.84
67842;BME280;54642;59.126;37.876;2023-09-07T08:06:14;100670.31;;;14.83;61.28
67842;BME280;54642;59.126;37.876;2023-09-07T08:08:41;100657.84;;;15.04;60.82
67842;BME280;54642;59.126;37.876;2023-09-07T08:11:07;100658.75;;;15.03;60.24
67842;BME280;54642;59.126;37.876;2023-09-07T08:13:37;100659.59;;;15.03;60.17
67842;BME280;54642;59.126;37.876;2023-09-07T08:16:06;100646.38;;;15.14;59.94
67842;BME280;54642;59.126;37.876;2023-09-07T08:18:33;100641.41;;;14.99;59.79
67842;BME280;54642;59.126;37.876;2023-09-07T08:21:00;100647.72;;;14.81;60.13
67842;BME280;54642;59.126;37.876;2023-09-07T08:23:26;100646.25;;;14.57;60.92
67842;BME280;54642;59.126;37.876;2023-09-07T08:25:53;100654.88;;;14.65;61.03
67842;BME280;54642;59.126;37.876;2023-09-07T08:28:21;100642.91;;;14.45;61.16
67842;BME280;54642;59.126;37.876;2023-09-07T08:30:51;100653.38;;;14.42;61.76
67842;BME280;54642;59.126;37.876;2023-09-07T08:33:21;100648.38;;;14.22;61.80
67842;BME280;54642;59.126;37.876;2023-09-07T08:35:57;100651.03;;;14.16;61.79
67842;BME280;54642;59.126;37.876;2023-09-07T08:38:25;100663.13;;;14.23;61.81
67842;BME280;54642;59.126;37.876;2023-09-07T08:40:54;100630.13;;;14.21;61.71
67842;BME280;54642;59.126;37.876;2023-09-07T08:43:23;100652.56;;;14.36;61.11
67842;BME280;54642;59.126;37.876;2023-09-07T08:46:05;100655.19;;;14.34;60.88
67842;BME280;54642;59.126;37.876;2023-09-07T08:48:34;100665.56;;;14.39;60.69
67842;BME280;54642;59.126;37.876;2023-09-07T08:51:02;100658.69;;;14.32;60.41
67842;BME280;54642;59.126;37.876;2023-09-07T08:53:30;100659.31;;;14.55;60.40
67842;BME280;54642;59.126;37.876;2023-09-07T08:55:56;100648.63;;;14.77;59.58
67842;BME280;54642;59.126;37.876;2023-09-07T08:58:23;100630.38;;;14.77;59.95
67842;BME280;54642;59.126;37.876;2023-09-07T09:00:49;100640.50;;;15.00;59.24
67842;BME280;54642;59.126;37.876;2023-09-07T09:03:15;100656.94;;;15.08;59.18
67842;BME280;54642;59.126;37.876;2023-09-07T09:05:41;100651.91;;;14.94;58.26
67842;BME280;54642;59.126;37.876;2023-09-07T09:08:08;100637.47;;;14.67;58.04
67842;BME280;54642;59.126;37.876;2023-09-07T09:10:38;100645.34;;;14.62;58.19
67842;BME280;54642;59.126;37.876;2023-09-07T09:13:06;100643.63;;;14.57;58.37
67842;BME280;54642;59.126;37.876;2023-09-07T09:15:32;100638.53;;;14.47;58.76
67842;BME280;54642;59.126;37.876;2023-09-07T09:17:58;100654.09;;;14.55;58.39
67842;BME280;54642;59.126;37.876;2023-09-07T09:20:25;100645.44;;;14.52;58.28
67842;BME280;54642;59.126;37.876;2023-09-07T09:22:53;100642.78;;;14.55;58.46
67842;BME280;54642;59.126;37.876;2023-09-07T09:25:19;100651.38;;;14.67;58.53
67842;BME280;54642;59.126;37.876;2023-09-07T09:27:46;100628.00;;;14.57;58.53
67842;BME280;54642;59.126;37.876;2023-09-07T09:30:12;100652.19;;;14.71;58.04
67842;BME280;54642;59.126;37.876;2023-09-07T09:32:40;100660.09;;;14.65;57.81
67842;BME280;54642;59.126;37.876;2023-09-07T09:35:08;100644.69;;;14.43;57.53
67842;BME280;54642;59.126;37.876;2023-09-07T09:37:46;100651.56;;;14.51;57.91
67842;BME280;54642;59.126;37.876;2023-09-07T09:40:14;100646.19;;;14.63;58.18
67842;BME280;54642;59.126;37.876;2023-09-07T09:42:42;100646.78;;;14.88;57.83
67842;BME280;54642;59.126;37.876;2023-09-07T09:45:10;100641.34;;;15.02;57.13
67842;BME280;54642;59.126;37.876;2023-09-07T09:47:42;100623.09;;;15.00;57.10
67842;BME280;54642;59.126;37.876;2023-09-07T09:50:10;100627.25;;;15.15;57.38
67842;BME280;54642;59.126;37.876;2023-09-07T09:52:37;100612.47;;;15.14;56.93
67842;BME280;54642;59.126;37.876;2023-09-07T09:55:07;100608.78;;;15.28;56.49
67842;BME280;54642;59.126;37.876;2023-09-07T09:57:36;100612.84;;;15.47;55.93
67842;BME280;54642;59.126;37.876;2023-09-07T10:00:04;100617.72;;;15.67;55.00
67842;BME280;54642;59.126;37.876;2023-09-07T10:03:04;100604.56;;;15.75;55.60
67842;BME280;54642;59.126;37.876;2023-09-07T10:05:31;100611.38;;;15.84;54.52
67842;BME280;54642;59.126;37.876;2023-09-07T10:08:12;100621.59;;;15.96;54.33
67842;BME280;54642;59.126;37.876;2023-09-07T10:10:41;100628.47;;;16.01;54.13
67842;BME280;54642;59.126;37.876;2023-09-07T10:13:08;100616.22;;;16.04;52.85
67842;BME280;54642;59.126;37.876;2023-09-07T10:15:34;100638.03;;;16.03;52.80
67842;BME280;54642;59.126;37.876;2023-09-07T10:18:15;100618.94;;;15.99;52.31
67842;BME280;54642;59.126;37.876;2023-09-07T10:20:55;100604.16;;;15.96;52.94
67842;BME280;54642;59.126;37.876;2023-09-07T10:23:42;100618.63;;;16.14;52.93
67842;BME280;54642;59.126;37.876;2023-09-07T10:26:15;100604.13;;;15.99;52.51
67842;BME280;54642;59.126;37.876;2023-09-07T10:28:42;100614.56;;;15.99;53.02
67842;BME280;54642;59.126;37.876;2023-09-07T10:31:19;100606.47;;;16.13;52.54
67842;BME280;54642;59.126;37.876;2023-09-07T10:33:46;100607.31;;;16.15;52.39
67842;BME280;54642;59.126;37.876;2023-09-07T10:36:26;100613.19;;;16.25;52.34
67842;BME280;54642;59.126;37.876;2023-09-07T10:38:54;100599.16;;;16.29;52.29
67842;BME280;54642;59.126;37.876;2023-09-07T10:41:20;100616.38;;;16.41;52.43
67842;BME280;54642;59.126;37.876;2023-09-07T10:43:54;100606.19;;;16.27;51.67
67842;BME280;54642;59.126;37.876;2023-09-07T10:46:21;100594.47;;;16.01;52.36
67842;BME280;54642;59.126;37.876;2023-09-07T10:48:52;100606.88;;;15.92;51.71
67842;BME280;54642;59.126;37.876;2023-09-07T10:51:19;100627.06;;;15.82;52.84
67842;BME280;54642;59.126;37.876;2023-09-07T10:53:45;100622.13;;;15.63;53.40
67842;BME280;54642;59.126;37.876;2023-09-07T10:56:11;100617.19;;;15.45;54.14
67842;BME280;54642;59.126;37.876;2023-09-07T10:58:38;100599.78;;;15.46;54.28
67842;BME280;54642;59.126;37.876;2023-09-07T11:01:06;100619.38;;;15.71;53.72
67842;BME280;54642;59.126;37.876;2023-09-07T11:03:33;100595.75;;;15.79;52.72
67842;BME280;54642;59.126;37.876;2023-09-07T11:06:03;100611.00;;;16.04;52.35
67842;BME280;54642;59.126;37.876;2023-09-07T11:08:30;100611.97;;;15.99;51.98
67842;BME280;54642;59.126;37.876;2023-09-07T11:10:56;100612.91;;;15.95;51.57
67842;BME280;54642;59.126;37.876;2023-09-07T11:13:25;100616.44;;;15.91;51.64
67842;BME280;54642;59.126;37.876;2023-09-07T11:15:56;100624.31;;;15.90;51.94
67842;BME280;54642;59.126;37.876;2023-09-07T11:18:23;100618.19;;;15.92;51.07
67842;BME280;54642;59.126;37.876;2023-09-07T11:20:50;100609.50;;;15.90;51.25
67842;BME280;54642;59.126;37.876;2023-09-07T11:23:17;100608.75;;;15.84;51.74
67842;BME280;54642;59.126;37.876;2023-09-07T11:25:44;100619.06;;;15.91;51.94
67842;BME280;54642;59.126;37.876;2023-09-07T11:28:17;100626.06;;;15.91;51.92
67842;BME280;54642;59.126;37.876;2023-09-07T11:30:50;100615.66;;;15.86;51.62
67842;BME280;54642;59.126;37.876;2023-09-07T11:33:17;100599.44;;;15.67;51.61
67842;BME280;54642;59.126;37.876;2023-09-07T11:35:45;100618.63;;;15.64;51.34
67842;BME280;54642;59.126;37.876;2023-09-07T11:38:13;100624.72;;;15.65;51.40
67842;BME280;54642;59.126;37.876;2023-09-07T11:40:39;100628.22;;;15.64;51.16
67842;BME280;54642;59.126;37.876;2023-09-07T11:43:08;100625.63;;;15.62;51.71
67842;BME280;54642;59.126;37.876;2023-09-07T11:45:34;100623.84;;;15.64;51.84
67842;BME280;54642;59.126;37.876;2023-09-07T11:48:03;100614.94;;;15.79;51.67
67842;BME280;54642;59.126;37.876;2023-09-07T11:50:29;100581.81;;;15.80;51.40
67842;BME280;54642;59.126;37.876;2023-09-07T11:52:55;100591.03;;;15.99;51.10
67842;BME280;54642;59.126;37.876;2023-09-07T11:55:22;100602.97;;;16.13;51.03
67842;BME280;54642;59.126;37.876;2023-09-07T11:57:48;100577.22;;;15.93;51.29
67842;BME280;54642;59.126;37.876;2023-09-07T12:00:14;100586.59;;;16.05;51.59
67842;BME280;54642;59.126;37.876;2023-09-07T12:02:40;100577.91;;;16.03;51.02
67842;BME280;54642;59.126;37.876;2023-09-07T12:05:07;100590.72;;;16.16;51.23
67842;BME280;54642;59.126;37.876;2023-09-07T12:07:41;100584.25;;;16.34;51.24
67842;BME280;54642;59.126;37.876;2023-09-07T12:10:08;100553.06;;;16.24;51.17
67842;BME280;54642;59.126;37.876;2023-09-07T12:12:37;100564.84;;;16.45;51.12
67842;BME280;54642;59.126;37.876;2023-09-07T12:15:03;100575.84;;;16.62;50.40
67842;BME280;54642;59.126;37.876;2023-09-07T12:17:33;100581.88;;;16.64;50.24
67842;BME280;54642;59.126;37.876;2023-09-07T12:20:00;100558.84;;;16.41;50.43
67842;BME280;54642;59.126;37.876;2023-09-07T12:22:26;100563.09;;;16.45;50.75
67842;BME280;54642;59.126;37.876;2023-09-07T12:24:52;100571.13;;;16.37;50.52
67842;BME280;54642;59.126;37.876;2023-09-07T12:27:19;100574.69;;;16.33;50.26
67842;BME280;54642;59.126;37.876;2023-09-07T12:29:45;100580.25;;;16.16;50.06
67842;BME280;54642;59.126;37.876;2023-09-07T12:32:10;100567.69;;;15.90;49.76
67842;BME280;54642;59.126;37.876;2023-09-07T12:34:37;100553.94;;;15.79;50.45
67842;BME280;54642;59.126;37.876;2023-09-07T12:37:04;100568.34;;;16.01;50.23
67842;BME280;54642;59.126;37.876;2023-09-07T12:39:31;100576.69;;;16.20;50.35
67842;BME280;54642;59.126;37.876;2023-09-07T12:41:57;100572.88;;;16.37;50.13
67842;BME280;54642;59.126;37.876;2023-09-07T12:44:23;100567.41;;;16.48;50.14